createdAt,value
2023-05-05T00:00:15.621Z,4.70
2023-05-05T00:02:42.141Z,4.68
2023-05-05T00:05:08.812Z,4.47
2023-05-05T00:07:36.681Z,5.10
2023-05-05T00:10:03.550Z,4.03
2023-05-05T00:12:30.393Z,4.20
2023-05-05T00:14:57.113Z,4.55
2023-05-05T00:17:23.528Z,4.15
2023-05-05T00:19:49.990Z,5.07
2023-05-05T00:22:16.430Z,4.05
2023-05-05T00:24:42.882Z,4.72
2023-05-05T00:27:10.329Z,4.88
2023-05-05T00:29:36.823Z,5.25
2023-05-05T00:32:03.230Z,5.68
2023-05-05T00:34:29.677Z,5.28
2023-05-05T00:36:56.342Z,5.38
2023-05-05T00:39:22.819Z,6.10
2023-05-05T00:41:49.204Z,5.15
2023-05-05T00:44:15.774Z,4.80
2023-05-05T00:46:43.379Z,4.50
2023-05-05T00:49:10.185Z,5.05
2023-05-05T00:51:36.763Z,4.78
2023-05-05T00:54:03.205Z,6.57
2023-05-05T00:56:29.722Z,3.70
2023-05-05T00:58:56.398Z,5.78
2023-05-05T01:01:23.007Z,4.00
2023-05-05T01:03:49.648Z,4.32
2023-05-05T01:06:47.227Z,4.68
2023-05-05T01:09:43.318Z,3.63
2023-05-05T01:12:38.859Z,4.75
2023-05-05T01:15:16.676Z,3.95
2023-05-05T01:17:52.614Z,4.25
2023-05-05T01:20:40.727Z,4.63
2023-05-05T01:23:09.927Z,4.03
2023-05-05T01:25:57.990Z,4.70
2023-05-05T01:28:35.779Z,4.65
2023-05-05T01:31:14.168Z,4.55
2023-05-05T01:33:47.864Z,5.13
2023-05-05T01:36:23.342Z,4.72
2023-05-05T01:38:57.405Z,4.22
2023-05-05T01:41:29.694Z,3.92
2023-05-05T01:43:59.670Z,5.40
2023-05-05T01:46:27.706Z,5.88
2023-05-05T01:48:55.909Z,5.15
2023-05-05T01:51:24.685Z,5.57
2023-05-05T01:54:00.783Z,4.78
2023-05-05T01:56:30.130Z,4.35
2023-05-05T01:58:57.422Z,5.22
2023-05-05T02:01:26.407Z,3.28
2023-05-05T02:03:56.761Z,4.38
2023-05-05T02:06:24.907Z,4.10
2023-05-05T02:08:52.954Z,3.80
2023-05-05T02:11:21.452Z,6.60
2023-05-05T02:13:49.978Z,4.63
2023-05-05T02:16:18.487Z,5.25
2023-05-05T02:18:48.868Z,6.13
2023-05-05T02:21:18.012Z,5.03
2023-05-05T02:23:47.388Z,3.88
2023-05-05T02:26:16.819Z,4.72
2023-05-05T02:29:05.539Z,4.72
2023-05-05T02:31:44.329Z,3.63
2023-05-05T02:34:12.965Z,4.07
2023-05-05T02:36:42.363Z,4.90
2023-05-05T02:39:24.980Z,3.90
2023-05-05T02:41:54.085Z,4.82
2023-05-05T02:44:23.373Z,4.28
2023-05-05T02:46:50.836Z,3.83
2023-05-05T02:49:17.354Z,3.88
2023-05-05T02:51:43.900Z,4.05
2023-05-05T02:54:10.992Z,4.47
2023-05-05T02:56:48.816Z,4.53
2023-05-05T02:59:47.425Z,4.20
2023-05-05T03:02:39.734Z,4.78
2023-05-05T03:05:23.523Z,4.50
2023-05-05T03:08:00.252Z,2.92
2023-05-05T03:10:30.441Z,4.40
2023-05-05T03:13:00.203Z,2.95
2023-05-05T03:15:31.456Z,4.75
2023-05-05T03:17:59.447Z,3.22
2023-05-05T03:20:26.722Z,4.35
2023-05-05T03:22:54.937Z,4.13
2023-05-05T03:25:21.569Z,4.03
2023-05-05T03:27:47.995Z,3.17
2023-05-05T03:30:15.201Z,4.18
2023-05-05T03:32:41.634Z,3.17
2023-05-05T03:35:08.487Z,3.03
2023-05-05T03:37:34.988Z,3.35
2023-05-05T03:40:01.510Z,3.50
2023-05-05T03:42:27.965Z,3.20
2023-05-05T03:44:54.432Z,3.35
2023-05-05T03:47:20.992Z,3.88
2023-05-05T03:49:47.627Z,3.22
2023-05-05T03:52:15.069Z,2.63
2023-05-05T03:54:42.429Z,3.28
2023-05-05T03:57:08.972Z,3.75
2023-05-05T03:59:35.483Z,3.60
2023-05-05T04:02:01.954Z,3.78
2023-05-05T04:04:28.447Z,2.83
2023-05-05T04:06:54.927Z,2.65
2023-05-05T04:09:21.250Z,3.13
2023-05-05T04:11:51.248Z,2.92
2023-05-05T04:14:17.728Z,3.10
2023-05-05T04:16:44.205Z,4.15
2023-05-05T04:19:12.978Z,3.80
2023-05-05T04:21:39.474Z,3.85
2023-05-05T04:24:06.171Z,3.15
2023-05-05T04:26:32.661Z,2.33
2023-05-05T04:28:59.129Z,3.17
2023-05-05T04:31:25.714Z,4.28
2023-05-05T04:33:52.158Z,3.95
2023-05-05T04:36:19.187Z,3.42
2023-05-05T04:38:45.843Z,4.45
2023-05-05T04:41:12.449Z,3.38
2023-05-05T04:43:38.920Z,3.65
2023-05-05T04:46:05.530Z,3.35
2023-05-05T04:48:32.086Z,2.63
2023-05-05T04:50:58.496Z,3.75
2023-05-05T04:53:25.047Z,4.07
2023-05-05T04:55:51.516Z,3.13
2023-05-05T04:58:17.918Z,3.40
2023-05-05T05:00:44.403Z,2.95
2023-05-05T05:03:11.527Z,3.50
2023-05-05T05:05:38.081Z,3.45
2023-05-05T05:08:04.758Z,3.10
2023-05-05T05:10:31.510Z,3.97
2023-05-05T05:12:57.959Z,2.90
2023-05-05T05:15:49.194Z,2.85
2023-05-05T05:29:20.781Z,3.75
2023-05-05T05:33:26.210Z,3.53
2023-05-05T05:43:47.186Z,3.42
2023-05-05T05:50:41.864Z,5.28
2023-05-05T06:03:38.784Z,4.35
2023-05-05T06:06:41.806Z,5.72
2023-05-05T06:09:30.468Z,3.38
2023-05-05T06:19:12.042Z,4.47
2023-05-05T06:37:27.551Z,6.38
2023-05-05T07:09:33.708Z,5.28
2023-05-05T07:12:50.226Z,6.97
2023-05-05T07:23:07.362Z,6.32
2023-05-05T08:28:20.204Z,3.30
2023-05-05T08:31:05.022Z,3.97
2023-05-05T08:33:42.469Z,3.38
2023-05-05T08:36:17.288Z,3.85
2023-05-05T08:42:05.775Z,2.90
2023-05-05T08:44:46.121Z,4.00
2023-05-05T08:47:39.954Z,2.78
2023-05-05T08:50:36.363Z,3.22
2023-05-05T08:56:41.822Z,2.67
2023-05-05T08:59:34.610Z,3.33
2023-05-05T09:02:38.484Z,2.15
2023-05-05T09:05:17.838Z,3.88
2023-05-05T09:08:33.616Z,3.33
2023-05-05T09:11:16.833Z,2.55
2023-05-05T09:13:52.734Z,2.47
2023-05-05T09:16:37.827Z,3.60
2023-05-05T09:19:17.626Z,2.65
2023-05-05T09:22:03.732Z,2.50
2023-05-05T09:24:48.920Z,2.10
2023-05-05T09:27:23.878Z,3.03
2023-05-05T09:30:27.850Z,2.83
2023-05-05T09:33:06.488Z,2.50
2023-05-05T09:35:56.967Z,2.63
2023-05-05T09:38:45.630Z,4.03
2023-05-05T09:41:21.064Z,3.25
2023-05-05T09:44:00.102Z,2.47
2023-05-05T09:46:43.977Z,4.47
2023-05-05T09:50:03.309Z,4.13
2023-05-05T09:52:36.304Z,3.28
2023-05-05T09:55:20.219Z,4.18
2023-05-05T09:58:10.511Z,3.53
2023-05-05T10:00:52.455Z,3.40
2023-05-05T10:03:30.153Z,4.65
2023-05-05T10:06:10.574Z,4.00
2023-05-05T10:08:54.708Z,3.80
2023-05-05T10:11:27.520Z,4.47
2023-05-05T10:14:19.283Z,3.97
2023-05-05T10:17:06.199Z,4.57
2023-05-05T10:20:10.093Z,4.75
2023-05-05T10:26:16.332Z,3.33
2023-05-05T10:29:04.586Z,2.78
2023-05-05T10:32:00.495Z,3.72
2023-05-05T10:34:59.652Z,3.90
2023-05-05T10:38:31.747Z,3.25
2023-05-05T10:41:23.872Z,3.80
2023-05-05T10:45:21.556Z,2.67
2023-05-05T10:51:48.326Z,2.80
2023-05-05T11:02:06.317Z,3.47
2023-05-05T11:09:05.203Z,1.52
2023-05-05T11:26:31.953Z,3.05
2023-05-05T12:31:02.308Z,3.08
2023-05-05T12:33:28.972Z,1.83
2023-05-05T12:35:55.562Z,2.53
2023-05-05T12:38:24.828Z,2.08
2023-05-05T12:40:57.015Z,1.55
2023-05-05T12:43:34.709Z,1.77
2023-05-05T12:46:02.221Z,2.20
2023-05-05T12:48:28.742Z,1.67
2023-05-05T12:50:55.943Z,2.55
2023-05-05T12:53:26.272Z,2.50
2023-05-05T14:28:01.259Z,1.65
2023-05-05T14:30:27.743Z,1.95
2023-05-05T14:33:02.666Z,1.55
2023-05-05T14:35:32.970Z,2.97
2023-05-05T14:37:59.490Z,1.00
2023-05-05T14:40:26.003Z,2.47
2023-05-05T14:42:52.469Z,1.05
2023-05-05T14:45:18.921Z,1.38
2023-05-05T14:47:45.485Z,2.15
2023-05-05T14:50:11.945Z,1.25
2023-05-05T14:52:40.082Z,1.92
2023-05-05T14:55:08.020Z,1.27
2023-05-05T14:57:34.748Z,1.48
2023-05-05T15:00:01.222Z,1.67
2023-05-05T15:02:27.734Z,1.95
2023-05-05T15:04:54.285Z,1.17
2023-05-05T15:07:22.146Z,1.30
2023-05-05T15:09:48.506Z,1.63
2023-05-05T15:12:14.981Z,1.35
2023-05-05T15:14:41.746Z,2.25
2023-05-05T15:17:08.163Z,2.25
2023-05-05T15:19:34.701Z,1.83
2023-05-05T15:22:01.212Z,2.47
2023-05-05T15:24:27.599Z,1.20
2023-05-05T15:26:54.059Z,1.42
2023-05-05T15:29:21.236Z,1.77
2023-05-05T15:31:47.793Z,1.27
2023-05-05T15:34:14.390Z,0.98
2023-05-05T15:36:40.772Z,2.63
2023-05-05T19:03:14.283Z,1.10
2023-05-05T19:27:49.316Z,1.85
2023-05-05T21:54:08.037Z,1.95
2023-05-05T21:57:56.869Z,2.60
2023-05-05T22:57:09.765Z,2.33
2023-05-05T23:25:01.991Z,2.00
2023-05-05T23:27:36.395Z,2.53
2023-05-05T23:30:32.100Z,2.67
2023-05-05T23:33:11.377Z,2.22
2023-05-05T23:35:52.275Z,1.65
2023-05-05T23:38:38.974Z,2.20
2023-05-05T23:41:19.260Z,2.38
2023-05-05T23:44:00.594Z,2.50
2023-05-05T23:46:40.672Z,2.17
2023-05-05T23:49:21.846Z,2.83
2023-05-05T23:52:32.773Z,2.08
2023-05-05T23:55:11.240Z,2.20
2023-05-05T23:57:47.842Z,2.47
